sensor_id;sensor_type;location;lat;lon;timestamp;temperature;humidity
8152;DHT22;4117;53.622;9.958;2023-02-18T00:02:18;6.40;14.50
8152;DHT22;4117;53.622;9.958;2023-02-18T00:04:45;6.40;15.40
8152;DHT22;4117;53.622;9.958;2023-02-18T00:07:14;6.40;15.50
8152;DHT22;4117;53.622;9.958;2023-02-18T00:09:41;6.40;15.10
8152;DHT22;4117;53.622;9.958;2023-02-18T00:12:07;6.50;14.50
8152;DHT22;4117;53.622;9.958;2023-02-18T00:14:34;6.50;12.50
8152;DHT22;4117;53.622;9.958;2023-02-18T00:17:01;6.50;14.50
8152;DHT22;4117;53.622;9.958;2023-02-18T00:19:28;6.50;14.50
8152;DHT22;4117;53.622;9.958;2023-02-18T00:21:55;6.50;14.50
8152;DHT22;4117;53.622;9.958;2023-02-18T00:24:23;6.50;14.50
8152;DHT22;4117;53.622;9.958;2023-02-18T00:26:51;6.50;14.60
8152;DHT22;4117;53.622;9.958;2023-02-18T00:29:18;6.50;14.40
8152;DHT22;4117;53.622;9.958;2023-02-18T00:31:45;6.50;14.50
8152;DHT22;4117;53.622;9.958;2023-02-18T00:34:12;6.50;14.50
8152;DHT22;4117;53.622;9.958;2023-02-18T00:36:39;6.50;14.50
8152;DHT22;4117;53.622;9.958;2023-02-18T00:39:08;6.40;14.40
8152;DHT22;4117;53.622;9.958;2023-02-18T00:41:37;6.40;14.50
8152;DHT22;4117;53.622;9.958;2023-02-18T00:44:04;6.40;14.50
8152;DHT22;4117;53.622;9.958;2023-02-18T00:46:32;6.40;13.40
8152;DHT22;4117;53.622;9.958;2023-02-18T00:48:59;6.40;14.50
8152;DHT22;4117;53.622;9.958;2023-02-18T00:51:26;6.40;14.30
8152;DHT22;4117;53.622;9.958;2023-02-18T00:53:53;6.40;14.50
8152;DHT22;4117;53.622;9.958;2023-02-18T00:56:20;6.40;14.50
8152;DHT22;4117;53.622;9.958;2023-02-18T00:58:49;6.40;11.90
8152;DHT22;4117;53.622;9.958;2023-02-18T01:01:17;6.40;14.50
8152;DHT22;4117;53.622;9.958;2023-02-18T01:03:44;6.30;11.10
8152;DHT22;4117;53.622;9.958;2023-02-18T01:06:11;6.40;14.50
8152;DHT22;4117;53.622;9.958;2023-02-18T01:08:39;6.30;14.40
8152;DHT22;4117;53.622;9.958;2023-02-18T01:11:08;6.30;14.70
8152;DHT22;4117;53.622;9.958;2023-02-18T01:13:35;6.30;14.40
8152;DHT22;4117;53.622;9.958;2023-02-18T01:16:04;6.30;14.50
8152;DHT22;4117;53.622;9.958;2023-02-18T01:18:31;6.30;14.40
8152;DHT22;4117;53.622;9.958;2023-02-18T01:20:58;6.30;14.40
8152;DHT22;4117;53.622;9.958;2023-02-18T01:23:26;6.20;15.00
8152;DHT22;4117;53.622;9.958;2023-02-18T01:25:53;6.20;14.70
8152;DHT22;4117;53.622;9.958;2023-02-18T01:28:20;6.20;14.40
8152;DHT22;4117;53.622;9.958;2023-02-18T01:30:49;6.30;16.60
8152;DHT22;4117;53.622;9.958;2023-02-18T01:33:18;6.20;14.40
8152;DHT22;4117;53.622;9.958;2023-02-18T01:35:45;6.20;14.40
8152;DHT22;4117;53.622;9.958;2023-02-18T01:38:12;6.20;18.60
8152;DHT22;4117;53.622;9.958;2023-02-18T01:40:45;6.20;18.60
8152;DHT22;4117;53.622;9.958;2023-02-18T01:43:13;6.20;14.70
8152;DHT22;4117;53.622;9.958;2023-02-18T01:45:59;6.20;18.10
8152;DHT22;4117;53.622;9.958;2023-02-18T01:48:32;6.20;15.70
8152;DHT22;4117;53.622;9.958;2023-02-18T01:51:03;6.10;17.90
8152;DHT22;4117;53.622;9.958;2023-02-18T01:53:36;6.10;18.10
8152;DHT22;4117;53.622;9.958;2023-02-18T01:56:07;6.10;18.30
8152;DHT22;4117;53.622;9.958;2023-02-18T01:58:34;6.10;14.40
8152;DHT22;4117;53.622;9.958;2023-02-18T02:01:02;6.10;17.50
8152;DHT22;4117;53.622;9.958;2023-02-18T02:03:30;6.10;18.70
8152;DHT22;4117;53.622;9.958;2023-02-18T02:05:57;6.10;18.20
8152;DHT22;4117;53.622;9.958;2023-02-18T02:08:24;6.10;18.90
8152;DHT22;4117;53.622;9.958;2023-02-18T02:11:01;6.10;19.00
8152;DHT22;4117;53.622;9.958;2023-02-18T02:13:39;6.10;17.70
8152;DHT22;4117;53.622;9.958;2023-02-18T02:16:11;6.10;17.80
8152;DHT22;4117;53.622;9.958;2023-02-18T02:18:52;6.10;17.90
8152;DHT22;4117;53.622;9.958;2023-02-18T02:24:47;6.10;16.60
8152;DHT22;4117;53.622;9.958;2023-02-18T02:27:22;6.10;17.10
8152;DHT22;4117;53.622;9.958;2023-02-18T02:30:20;6.00;17.10
8152;DHT22;4117;53.622;9.958;2023-02-18T02:33:31;6.10;16.70
8152;DHT22;4117;53.622;9.958;2023-02-18T02:36:06;6.00;18.90
8152;DHT22;4117;53.622;9.958;2023-02-18T02:38:41;6.00;15.90
8152;DHT22;4117;53.622;9.958;2023-02-18T02:41:17;6.00;17.00
8152;DHT22;4117;53.622;9.958;2023-02-18T02:43:55;6.00;16.80
8152;DHT22;4117;53.622;9.958;2023-02-18T02:46:30;6.00;16.90
8152;DHT22;4117;53.622;9.958;2023-02-18T02:49:08;6.00;16.40
8152;DHT22;4117;53.622;9.958;2023-02-18T02:51:42;6.00;18.40
8152;DHT22;4117;53.622;9.958;2023-02-18T02:54:13;6.00;19.40
8152;DHT22;4117;53.622;9.958;2023-02-18T02:56:40;6.00;18.50
8152;DHT22;4117;53.622;9.958;2023-02-18T02:59:10;6.00;18.70
8152;DHT22;4117;53.622;9.958;2023-02-18T03:01:48;6.00;17.70
8152;DHT22;4117;53.622;9.958;2023-02-18T03:07:38;6.00;19.20
8152;DHT22;4117;53.622;9.958;2023-02-18T03:10:24;6.00;18.60
8152;DHT22;4117;53.622;9.958;2023-02-18T03:13:03;6.00;18.20
8152;DHT22;4117;53.622;9.958;2023-02-18T03:15:38;6.00;15.80
8152;DHT22;4117;53.622;9.958;2023-02-18T03:18:15;6.00;16.30
8152;DHT22;4117;53.622;9.958;2023-02-18T03:20:49;6.00;14.60
8152;DHT22;4117;53.622;9.958;2023-02-18T03:23:25;6.00;15.40
8152;DHT22;4117;53.622;9.958;2023-02-18T03:25:53;6.10;14.60
8152;DHT22;4117;53.622;9.958;2023-02-18T03:28:23;6.10;16.80
8152;DHT22;4117;53.622;9.958;2023-02-18T03:30:54;6.10;17.20
8152;DHT22;4117;53.622;9.958;2023-02-18T03:33:25;6.10;18.50
8152;DHT22;4117;53.622;9.958;2023-02-18T03:35:54;6.10;18.60
8152;DHT22;4117;53.622;9.958;2023-02-18T03:38:28;6.10;18.80
8152;DHT22;4117;53.622;9.958;2023-02-18T03:40:57;6.10;16.40
8152;DHT22;4117;53.622;9.958;2023-02-18T03:43:24;6.10;16.40
8152;DHT22;4117;53.622;9.958;2023-02-18T03:45:51;6.10;15.50
8152;DHT22;4117;53.622;9.958;2023-02-18T03:48:18;6.10;15.80
8152;DHT22;4117;53.622;9.958;2023-02-18T03:50:45;6.10;15.40
8152;DHT22;4117;53.622;9.958;2023-02-18T03:53:12;6.10;15.10
8152;DHT22;4117;53.622;9.958;2023-02-18T03:55:40;6.10;14.30
8152;DHT22;4117;53.622;9.958;2023-02-18T03:58:07;6.10;14.30
8152;DHT22;4117;53.622;9.958;2023-02-18T04:00:34;6.10;14.30
8152;DHT22;4117;53.622;9.958;2023-02-18T04:03:01;6.20;14.50
8152;DHT22;4117;53.622;9.958;2023-02-18T04:05:28;6.20;14.40
8152;DHT22;4117;53.622;9.958;2023-02-18T04:07:55;6.20;14.30
8152;DHT22;4117;53.622;9.958;2023-02-18T04:10:22;6.20;14.40
8152;DHT22;4117;53.622;9.958;2023-02-18T04:12:50;6.20;14.40
8152;DHT22;4117;53.622;9.958;2023-02-18T04:15:17;6.20;14.40
8152;DHT22;4117;53.622;9.958;2023-02-18T04:17:44;6.20;18.50
8152;DHT22;4117;53.622;9.958;2023-02-18T04:20:11;6.20;14.90
8152;DHT22;4117;53.622;9.958;2023-02-18T04:22:39;6.10;17.60
8152;DHT22;4117;53.622;9.958;2023-02-18T04:25:06;6.10;22.10
8152;DHT22;4117;53.622;9.958;2023-02-18T04:27:33;6.10;19.90
8152;DHT22;4117;53.622;9.958;2023-02-18T04:30:02;6.10;19.30
8152;DHT22;4117;53.622;9.958;2023-02-18T04:32:29;6.10;24.50
8152;DHT22;4117;53.622;9.958;2023-02-18T04:34:55;6.10;22.90
8152;DHT22;4117;53.622;9.958;2023-02-18T04:37:22;6.10;24.30
8152;DHT22;4117;53.622;9.958;2023-02-18T04:39:49;6.10;24.40
8152;DHT22;4117;53.622;9.958;2023-02-18T04:42:16;6.10;24.30
8152;DHT22;4117;53.622;9.958;2023-02-18T04:44:43;6.10;24.50
8152;DHT22;4117;53.622;9.958;2023-02-18T04:47:11;6.00;24.50
8152;DHT22;4117;53.622;9.958;2023-02-18T04:49:38;6.00;24.50
8152;DHT22;4117;53.622;9.958;2023-02-18T04:52:05;6.00;24.50
8152;DHT22;4117;53.622;9.958;2023-02-18T04:54:32;6.00;25.00
8152;DHT22;4117;53.622;9.958;2023-02-18T04:56:59;5.90;24.80
8152;DHT22;4117;53.622;9.958;2023-02-18T04:59:26;5.90;24.50
8152;DHT22;4117;53.622;9.958;2023-02-18T05:01:53;6.00;25.70
8152;DHT22;4117;53.622;9.958;2023-02-18T05:04:21;5.90;25.30
8152;DHT22;4117;53.622;9.958;2023-02-18T05:06:48;5.90;24.60
8152;DHT22;4117;53.622;9.958;2023-02-18T05:09:15;5.90;27.90
8152;DHT22;4117;53.622;9.958;2023-02-18T05:11:42;5.90;28.40
8152;DHT22;4117;53.622;9.958;2023-02-18T05:14:09;5.90;31.30
8152;DHT22;4117;53.622;9.958;2023-02-18T05:16:36;5.90;30.60
8152;DHT22;4117;53.622;9.958;2023-02-18T05:19:03;5.90;30.20
8152;DHT22;4117;53.622;9.958;2023-02-18T05:21:32;5.90;35.40
8152;DHT22;4117;53.622;9.958;2023-02-18T05:23:59;5.90;35.50
8152;DHT22;4117;53.622;9.958;2023-02-18T05:26:26;5.80;30.50
8152;DHT22;4117;53.622;9.958;2023-02-18T05:28:53;5.90;34.70
8152;DHT22;4117;53.622;9.958;2023-02-18T05:31:19;5.90;35.80
8152;DHT22;4117;53.622;9.958;2023-02-18T05:33:46;5.90;35.50
8152;DHT22;4117;53.622;9.958;2023-02-18T05:36:13;5.90;38.40
8152;DHT22;4117;53.622;9.958;2023-02-18T05:38:42;5.80;38.50
8152;DHT22;4117;53.622;9.958;2023-02-18T05:41:09;5.80;40.70
8152;DHT22;4117;53.622;9.958;2023-02-18T05:43:35;5.80;41.90
8152;DHT22;4117;53.622;9.958;2023-02-18T05:46:16;5.80;43.00
8152;DHT22;4117;53.622;9.958;2023-02-18T05:48:43;5.80;45.30
8152;DHT22;4117;53.622;9.958;2023-02-18T05:51:10;5.80;46.70
8152;DHT22;4117;53.622;9.958;2023-02-18T05:53:37;5.80;47.60
8152;DHT22;4117;53.622;9.958;2023-02-18T05:56:06;5.80;47.20
8152;DHT22;4117;53.622;9.958;2023-02-18T05:58:33;5.80;47.70
8152;DHT22;4117;53.622;9.958;2023-02-18T06:01:00;5.80;47.80
8152;DHT22;4117;53.622;9.958;2023-02-18T06:03:26;5.80;49.30
8152;DHT22;4117;53.622;9.958;2023-02-18T06:05:53;5.80;50.10
8152;DHT22;4117;53.622;9.958;2023-02-18T06:08:20;5.70;48.60
8152;DHT22;4117;53.622;9.958;2023-02-18T06:10:47;5.70;52.90
8152;DHT22;4117;53.622;9.958;2023-02-18T06:13:16;5.70;53.10
8152;DHT22;4117;53.622;9.958;2023-02-18T06:15:43;5.80;53.00
8152;DHT22;4117;53.622;9.958;2023-02-18T06:18:10;5.70;54.40
8152;DHT22;4117;53.622;9.958;2023-02-18T06:20:38;5.70;55.50
8152;DHT22;4117;53.622;9.958;2023-02-18T06:23:05;5.60;56.80
8152;DHT22;4117;53.622;9.958;2023-02-18T06:25:32;5.70;53.20
8152;DHT22;4117;53.622;9.958;2023-02-18T06:27:59;5.70;58.80
8152;DHT22;4117;53.622;9.958;2023-02-18T06:30:27;5.70;58.90
8152;DHT22;4117;53.622;9.958;2023-02-18T06:32:54;5.60;55.90
8152;DHT22;4117;53.622;9.958;2023-02-18T06:35:22;5.60;57.00
8152;DHT22;4117;53.622;9.958;2023-02-18T06:37:48;5.70;59.10
8152;DHT22;4117;53.622;9.958;2023-02-18T06:40:16;5.60;59.30
8152;DHT22;4117;53.622;9.958;2023-02-18T06:42:43;5.60;59.20
8152;DHT22;4117;53.622;9.958;2023-02-18T06:45:09;5.60;59.10
8152;DHT22;4117;53.622;9.958;2023-02-18T06:47:38;5.60;54.70
8152;DHT22;4117;53.622;9.958;2023-02-18T06:50:06;5.60;55.00
8152;DHT22;4117;53.622;9.958;2023-02-18T06:52:33;5.50;59.10
8152;DHT22;4117;53.622;9.958;2023-02-18T06:55:02;5.60;59.20
8152;DHT22;4117;53.622;9.958;2023-02-18T06:57:30;5.60;59.10
8152;DHT22;4117;53.622;9.958;2023-02-18T06:59:57;5.60;59.00
8152;DHT22;4117;53.622;9.958;2023-02-18T07:02:24;5.70;60.00
8152;DHT22;4117;53.622;9.958;2023-02-18T07:04:53;5.60;59.90
8152;DHT22;4117;53.622;9.958;2023-02-18T07:07:19;5.60;59.30
8152;DHT22;4117;53.622;9.958;2023-02-18T07:09:46;5.70;59.40
8152;DHT22;4117;53.622;9.958;2023-02-18T07:12:13;5.70;59.40
8152;DHT22;4117;53.622;9.958;2023-02-18T07:14:40;5.70;59.40
8152;DHT22;4117;53.622;9.958;2023-02-18T07:17:07;5.70;59.40
8152;DHT22;4117;53.622;9.958;2023-02-18T07:19:34;5.70;59.40
8152;DHT22;4117;53.622;9.958;2023-02-18T07:22:02;5.70;59.90
8152;DHT22;4117;53.622;9.958;2023-02-18T07:24:29;5.80;59.40
8152;DHT22;4117;53.622;9.958;2023-02-18T07:26:56;5.80;59.40
8152;DHT22;4117;53.622;9.958;2023-02-18T07:29:23;5.70;60.50
8152;DHT22;4117;53.622;9.958;2023-02-18T07:31:50;5.70;60.30
8152;DHT22;4117;53.622;9.958;2023-02-18T07:34:17;5.80;62.70
8152;DHT22;4117;53.622;9.958;2023-02-18T07:36:44;5.80;61.10
8152;DHT22;4117;53.622;9.958;2023-02-18T07:39:12;5.80;60.70
8152;DHT22;4117;53.622;9.958;2023-02-18T07:41:39;5.80;59.50
8152;DHT22;4117;53.622;9.958;2023-02-18T07:44:06;5.80;60.00
8152;DHT22;4117;53.622;9.958;2023-02-18T07:46:33;5.80;59.40
8152;DHT22;4117;53.622;9.958;2023-02-18T07:49:00;5.80;59.60
8152;DHT22;4117;53.622;9.958;2023-02-18T07:51:27;5.80;61.10
8152;DHT22;4117;53.622;9.958;2023-02-18T07:53:54;5.80;60.10
8152;DHT22;4117;53.622;9.958;2023-02-18T07:56:22;5.90;60.00
8152;DHT22;4117;53.622;9.958;2023-02-18T07:58:49;5.80;62.30
8152;DHT22;4117;53.622;9.958;2023-02-18T08:01:16;5.80;61.70
8152;DHT22;4117;53.622;9.958;2023-02-18T08:03:43;5.80;60.10
8152;DHT22;4117;53.622;9.958;2023-02-18T08:06:19;5.90;64.30
8152;DHT22;4117;53.622;9.958;2023-02-18T08:08:46;5.90;62.30
8152;DHT22;4117;53.622;9.958;2023-02-18T08:11:13;5.90;62.90
8152;DHT22;4117;53.622;9.958;2023-02-18T08:13:41;5.90;61.40
8152;DHT22;4117;53.622;9.958;2023-02-18T08:16:08;5.90;62.20
8152;DHT22;4117;53.622;9.958;2023-02-18T08:18:35;5.90;60.10
8152;DHT22;4117;53.622;9.958;2023-02-18T08:21:03;5.90;62.50
8152;DHT22;4117;53.622;9.958;2023-02-18T08:23:30;5.90;64.70
8152;DHT22;4117;53.622;9.958;2023-02-18T08:25:56;5.90;64.50
8152;DHT22;4117;53.622;9.958;2023-02-18T08:28:24;5.90;63.30
8152;DHT22;4117;53.622;9.958;2023-02-18T08:30:53;5.90;64.60
8152;DHT22;4117;53.622;9.958;2023-02-18T08:33:22;5.90;66.10
8152;DHT22;4117;53.622;9.958;2023-02-18T08:35:51;5.90;65.90
8152;DHT22;4117;53.622;9.958;2023-02-18T08:38:18;6.00;72.70
8152;DHT22;4117;53.622;9.958;2023-02-18T08:40:48;6.00;66.00
8152;DHT22;4117;53.622;9.958;2023-02-18T08:43:16;6.00;66.40
8152;DHT22;4117;53.622;9.958;2023-02-18T08:45:43;6.00;66.00
8152;DHT22;4117;53.622;9.958;2023-02-18T08:48:12;6.00;67.70
8152;DHT22;4117;53.622;9.958;2023-02-18T08:50:40;5.90;72.80
8152;DHT22;4117;53.622;9.958;2023-02-18T08:53:07;5.90;69.00
8152;DHT22;4117;53.622;9.958;2023-02-18T08:55:34;6.00;70.30
8152;DHT22;4117;53.622;9.958;2023-02-18T08:58:03;6.00;72.00
8152;DHT22;4117;53.622;9.958;2023-02-18T09:00:31;6.00;72.20
8152;DHT22;4117;53.622;9.958;2023-02-18T09:02:59;6.00;72.80
8152;DHT22;4117;53.622;9.958;2023-02-18T09:05:27;6.00;72.80
8152;DHT22;4117;53.622;9.958;2023-02-18T09:07:54;6.00;72.80
8152;DHT22;4117;53.622;9.958;2023-02-18T09:10:21;6.00;72.90
8152;DHT22;4117;53.622;9.958;2023-02-18T09:12:48;6.00;72.70
8152;DHT22;4117;53.622;9.958;2023-02-18T09:15:15;6.00;72.70
8152;DHT22;4117;53.622;9.958;2023-02-18T09:17:43;6.00;73.30
8152;DHT22;4117;53.622;9.958;2023-02-18T09:20:11;6.00;78.80
8152;DHT22;4117;53.622;9.958;2023-02-18T09:22:39;6.00;80.00
8152;DHT22;4117;53.622;9.958;2023-02-18T09:25:06;6.00;85.80
8152;DHT22;4117;53.622;9.958;2023-02-18T09:27:34;6.00;85.60
8152;DHT22;4117;53.622;9.958;2023-02-18T09:30:01;6.00;85.60
8152;DHT22;4117;53.622;9.958;2023-02-18T09:32:28;6.10;85.70
8152;DHT22;4117;53.622;9.958;2023-02-18T09:34:55;6.10;90.20
8152;DHT22;4117;53.622;9.958;2023-02-18T09:37:22;6.10;86.60
8152;DHT22;4117;53.622;9.958;2023-02-18T09:39:50;6.10;86.50
8152;DHT22;4117;53.622;9.958;2023-02-18T09:42:17;6.10;85.70
8152;DHT22;4117;53.622;9.958;2023-02-18T09:44:49;6.10;89.60
8152;DHT22;4117;53.622;9.958;2023-02-18T09:47:19;6.10;85.90
8152;DHT22;4117;53.622;9.958;2023-02-18T09:49:51;6.20;88.30
8152;DHT22;4117;53.622;9.958;2023-02-18T09:52:23;6.20;88.00
8152;DHT22;4117;53.622;9.958;2023-02-18T09:54:51;6.20;88.40
8152;DHT22;4117;53.622;9.958;2023-02-18T09:57:23;6.20;90.20
8152;DHT22;4117;53.622;9.958;2023-02-18T09:59:55;6.20;93.90
8152;DHT22;4117;53.622;9.958;2023-02-18T10:02:23;6.20;93.70
8152;DHT22;4117;53.622;9.958;2023-02-18T10:04:50;6.20;96.20
8152;DHT22;4117;53.622;9.958;2023-02-18T10:07:22;6.20;99.90
8152;DHT22;4117;53.622;9.958;2023-02-18T10:09:53;6.20;99.90
8152;DHT22;4117;53.622;9.958;2023-02-18T10:12:23;6.20;99.90
8152;DHT22;4117;53.622;9.958;2023-02-18T10:14:52;6.20;99.90
8152;DHT22;4117;53.622;9.958;2023-02-18T10:17:20;6.20;99.90
8152;DHT22;4117;53.622;9.958;2023-02-18T10:19:50;6.20;99.90
8152;DHT22;4117;53.622;9.958;2023-02-18T10:22:18;6.30;99.90
8152;DHT22;4117;53.622;9.958;2023-02-18T10:24:48;6.30;99.90
8152;DHT22;4117;53.622;9.958;2023-02-18T10:27:20;6.30;99.90
8152;DHT22;4117;53.622;9.958;2023-02-18T10:29:50;6.30;99.90
8152;DHT22;4117;53.622;9.958;2023-02-18T10:32:21;6.30;99.90
8152;DHT22;4117;53.622;9.958;2023-02-18T10:34:52;6.40;99.90
8152;DHT22;4117;53.622;9.958;2023-02-18T10:37:47;6.40;99.90
8152;DHT22;4117;53.622;9.958;2023-02-18T10:40:22;6.40;99.90
8152;DHT22;4117;53.622;9.958;2023-02-18T10:43:02;6.40;99.90
8152;DHT22;4117;53.622;9.958;2023-02-18T10:45:37;6.50;99.90
8152;DHT22;4117;53.622;9.958;2023-02-18T10:48:35;6.50;99.90
8152;DHT22;4117;53.622;9.958;2023-02-18T10:51:13;6.60;99.90
8152;DHT22;4117;53.622;9.958;2023-02-18T10:53:43;6.60;99.90
8152;DHT22;4117;53.622;9.958;2023-02-18T10:56:32;6.60;99.90
8152;DHT22;4117;53.622;9.958;2023-02-18T10:59:08;6.60;99.90
8152;DHT22;4117;53.622;9.958;2023-02-18T11:01:35;6.70;99.90
8152;DHT22;4117;53.622;9.958;2023-02-18T11:04:11;6.70;99.90
8152;DHT22;4117;53.622;9.958;2023-02-18T11:06:40;6.70;99.90
8152;DHT22;4117;53.622;9.958;2023-02-18T11:09:28;6.70;99.90
8152;DHT22;4117;53.622;9.958;2023-02-18T11:12:02;6.70;99.90
8152;DHT22;4117;53.622;9.958;2023-02-18T11:14:39;6.70;99.90
8152;DHT22;4117;53.622;9.958;2023-02-18T11:17:20;6.70;99.90
8152;DHT22;4117;53.622;9.958;2023-02-18T11:19:55;6.70;99.90
8152;DHT22;4117;53.622;9.958;2023-02-18T11:22:23;6.80;99.90
8152;DHT22;4117;53.622;9.958;2023-02-18T11:24:55;6.80;99.90
8152;DHT22;4117;53.622;9.958;2023-02-18T11:27:25;6.80;99.90
8152;DHT22;4117;53.622;9.958;2023-02-18T11:29:59;6.80;99.90
8152;DHT22;4117;53.622;9.958;2023-02-18T11:32:28;6.80;99.90
8152;DHT22;4117;53.622;9.958;2023-02-18T11:34:56;6.80;99.90
8152;DHT22;4117;53.622;9.958;2023-02-18T11:37:23;6.80;99.90
8152;DHT22;4117;53.622;9.958;2023-02-18T11:39:53;6.80;99.90
8152;DHT22;4117;53.622;9.958;2023-02-18T11:42:23;6.90;99.90
8152;DHT22;4117;53.622;9.958;2023-02-18T11:44:54;6.90;99.90
8152;DHT22;4117;53.622;9.958;2023-02-18T11:47:32;6.90;99.90
8152;DHT22;4117;53.622;9.958;2023-02-18T11:50:20;7.00;99.90
8152;DHT22;4117;53.622;9.958;2023-02-18T11:52:49;7.10;99.90
8152;DHT22;4117;53.622;9.958;2023-02-18T11:55:18;7.20;99.90
8152;DHT22;4117;53.622;9.958;2023-02-18T11:57:49;7.30;99.90
8152;DHT22;4117;53.622;9.958;2023-02-18T12:00:23;7.40;99.90
8152;DHT22;4117;53.622;9.958;2023-02-18T12:02:51;7.60;99.90
8152;DHT22;4117;53.622;9.958;2023-02-18T12:05:22;7.80;99.90
8152;DHT22;4117;53.622;9.958;2023-02-18T12:07:51;8.10;99.90
8152;DHT22;4117;53.622;9.958;2023-02-18T12:10:25;8.30;99.90
8152;DHT22;4117;53.622;9.958;2023-02-18T12:12:57;8.40;99.90
8152;DHT22;4117;53.622;9.958;2023-02-18T12:15:33;8.50;99.90
8152;DHT22;4117;53.622;9.958;2023-02-18T12:18:25;8.40;99.90
8152;DHT22;4117;53.622;9.958;2023-02-18T12:24:05;8.50;99.90
8152;DHT22;4117;53.622;9.958;2023-02-18T12:26:43;8.60;99.90
8152;DHT22;4117;53.622;9.958;2023-02-18T12:29:31;8.60;99.90
8152;DHT22;4117;53.622;9.958;2023-02-18T12:32:11;8.60;99.90
8152;DHT22;4117;53.622;9.958;2023-02-18T12:34:57;8.70;99.90
8152;DHT22;4117;53.622;9.958;2023-02-18T12:37:39;8.60;99.90
8152;DHT22;4117;53.622;9.958;2023-02-18T12:40:33;8.60;99.90
8152;DHT22;4117;53.622;9.958;2023-02-18T12:43:09;8.60;99.90
8152;DHT22;4117;53.622;9.958;2023-02-18T12:45:56;8.60;99.90
8152;DHT22;4117;53.622;9.958;2023-02-18T12:48:46;8.60;99.90
8152;DHT22;4117;53.622;9.958;2023-02-18T12:51:45;8.60;99.90
8152;DHT22;4117;53.622;9.958;2023-02-18T12:54:35;8.60;99.90
8152;DHT22;4117;53.622;9.958;2023-02-18T12:57:19;8.60;99.90
8152;DHT22;4117;53.622;9.958;2023-02-18T13:03:20;8.60;99.90
8152;DHT22;4117;53.622;9.958;2023-02-18T13:05:56;8.60;99.90
8152;DHT22;4117;53.622;9.958;2023-02-18T13:08:40;8.60;99.90
8152;DHT22;4117;53.622;9.958;2023-02-18T13:11:17;8.60;99.90
8152;DHT22;4117;53.622;9.958;2023-02-18T13:13:49;8.60;99.90
8152;DHT22;4117;53.622;9.958;2023-02-18T13:16:18;8.60;99.90
8152;DHT22;4117;53.622;9.958;2023-02-18T13:18:52;8.60;99.90
8152;DHT22;4117;53.622;9.958;2023-02-18T13:21:23;8.60;99.90
8152;DHT22;4117;53.622;9.958;2023-02-18T13:23:53;8.60;99.90
8152;DHT22;4117;53.622;9.958;2023-02-18T13:26:22;8.60;99.90
8152;DHT22;4117;53.622;9.958;2023-02-18T13:28:55;8.50;99.90
8152;DHT22;4117;53.622;9.958;2023-02-18T13:31:35;8.50;99.90
8152;DHT22;4117;53.622;9.958;2023-02-18T13:34:11;8.50;99.90
8152;DHT22;4117;53.622;9.958;2023-02-18T13:36:50;8.50;99.90
8152;DHT22;4117;53.622;9.958;2023-02-18T13:39:22;8.50;99.90
8152;DHT22;4117;53.622;9.958;2023-02-18T13:41:51;8.50;99.90
8152;DHT22;4117;53.622;9.958;2023-02-18T13:44:39;8.50;99.90
8152;DHT22;4117;53.622;9.958;2023-02-18T13:47:07;8.50;99.90
8152;DHT22;4117;53.622;9.958;2023-02-18T13:49:36;8.40;99.90
8152;DHT22;4117;53.622;9.958;2023-02-18T13:52:05;8.40;99.90
8152;DHT22;4117;53.622;9.958;2023-02-18T13:54:38;8.40;99.90
8152;DHT22;4117;53.622;9.958;2023-02-18T13:57:13;8.30;99.90
8152;DHT22;4117;53.622;9.958;2023-02-18T13:59:43;8.30;99.90
8152;DHT22;4117;53.622;9.958;2023-02-18T14:02:32;8.20;99.90
8152;DHT22;4117;53.622;9.958;2023-02-18T14:05:18;8.20;99.90
8152;DHT22;4117;53.622;9.958;2023-02-18T14:07:49;8.10;99.90
8152;DHT22;4117;53.622;9.958;2023-02-18T14:10:34;8.00;99.90
8152;DHT22;4117;53.622;9.958;2023-02-18T14:13:38;7.70;99.90
8152;DHT22;4117;53.622;9.958;2023-02-18T14:16:07;7.50;99.90
8152;DHT22;4117;53.622;9.958;2023-02-18T14:18:57;7.50;99.90
8152;DHT22;4117;53.622;9.958;2023-02-18T14:21:42;7.30;99.90
8152;DHT22;4117;53.622;9.958;2023-02-18T14:24:11;7.30;99.90
8152;DHT22;4117;53.622;9.958;2023-02-18T14:26:43;7.30;99.90
8152;DHT22;4117;53.622;9.958;2023-02-18T14:29:14;7.20;99.90
8152;DHT22;4117;53.622;9.958;2023-02-18T14:31:46;7.20;99.90
8152;DHT22;4117;53.622;9.958;2023-02-18T14:34:47;7.10;99.90
8152;DHT22;4117;53.622;9.958;2023-02-18T14:37:41;6.90;99.90
8152;DHT22;4117;53.622;9.958;2023-02-18T14:40:43;6.90;99.90
8152;DHT22;4117;53.622;9.958;2023-02-18T14:43:23;6.80;99.90
8152;DHT22;4117;53.622;9.958;2023-02-18T14:46:17;6.70;99.90
8152;DHT22;4117;53.622;9.958;2023-02-18T14:49:05;6.60;99.90
8152;DHT22;4117;53.622;9.958;2023-02-18T14:51:35;6.50;99.90
8152;DHT22;4117;53.622;9.958;2023-02-18T14:54:04;6.30;99.90
8152;DHT22;4117;53.622;9.958;2023-02-18T14:56:36;6.50;99.90
8152;DHT22;4117;53.622;9.958;2023-02-18T14:59:05;6.40;99.90
8152;DHT22;4117;53.622;9.958;2023-02-18T15:01:34;6.50;99.90
8152;DHT22;4117;53.622;9.958;2023-02-18T15:04:02;6.40;99.90
8152;DHT22;4117;53.622;9.958;2023-02-18T15:06:31;6.50;99.90
8152;DHT22;4117;53.622;9.958;2023-02-18T15:08:59;6.60;99.90
8152;DHT22;4117;53.622;9.958;2023-02-18T15:11:34;6.60;99.90
8152;DHT22;4117;53.622;9.958;2023-02-18T15:14:04;6.50;99.90
8152;DHT22;4117;53.622;9.958;2023-02-18T15:16:35;6.50;99.90
8152;DHT22;4117;53.622;9.958;2023-02-18T15:19:05;6.40;99.90
8152;DHT22;4117;53.622;9.958;2023-02-18T15:21:36;6.40;99.90
8152;DHT22;4117;53.622;9.958;2023-02-18T15:24:08;6.30;99.90
8152;DHT22;4117;53.622;9.958;2023-02-18T15:26:41;6.20;99.90
8152;DHT22;4117;53.622;9.958;2023-02-18T15:29:14;6.20;99.90
8152;DHT22;4117;53.622;9.958;2023-02-18T15:31:43;6.30;99.90
8152;DHT22;4117;53.622;9.958;2023-02-18T15:34:31;6.20;99.90
8152;DHT22;4117;53.622;9.958;2023-02-18T15:36:59;6.20;99.90
8152;DHT22;4117;53.622;9.958;2023-02-18T15:39:27;6.10;99.90
8152;DHT22;4117;53.622;9.958;2023-02-18T15:41:58;6.10;99.90
8152;DHT22;4117;53.622;9.958;2023-02-18T15:44:29;6.10;99.90
8152;DHT22;4117;53.622;9.958;2023-02-18T15:47:00;6.10;99.90
8152;DHT22;4117;53.622;9.958;2023-02-18T15:49:27;6.10;99.90
8152;DHT22;4117;53.622;9.958;2023-02-18T15:51:56;6.10;99.90
8152;DHT22;4117;53.622;9.958;2023-02-18T15:54:24;6.10;99.90
8152;DHT22;4117;53.622;9.958;2023-02-18T15:56:53;6.00;99.90
8152;DHT22;4117;53.622;9.958;2023-02-18T15:59:24;6.00;99.90
8152;DHT22;4117;53.622;9.958;2023-02-18T16:01:54;6.00;99.90
8152;DHT22;4117;53.622;9.958;2023-02-18T16:04:23;6.10;99.90
8152;DHT22;4117;53.622;9.958;2023-02-18T16:06:52;6.00;99.90
8152;DHT22;4117;53.622;9.958;2023-02-18T16:09:24;6.00;99.90
8152;DHT22;4117;53.622;9.958;2023-02-18T16:11:54;6.00;99.90
8152;DHT22;4117;53.622;9.958;2023-02-18T16:14:28;6.00;99.90
8152;DHT22;4117;53.622;9.958;2023-02-18T16:17:06;6.00;99.90
8152;DHT22;4117;53.622;9.958;2023-02-18T16:19:44;6.00;99.90
8152;DHT22;4117;53.622;9.958;2023-02-18T16:22:26;6.00;99.90
8152;DHT22;4117;53.622;9.958;2023-02-18T16:24:56;6.00;99.90
8152;DHT22;4117;53.622;9.958;2023-02-18T16:27:30;6.00;99.90
8152;DHT22;4117;53.622;9.958;2023-02-18T16:30:02;6.00;99.90
8152;DHT22;4117;53.622;9.958;2023-02-18T16:32:29;6.00;99.90
8152;DHT22;4117;53.622;9.958;2023-02-18T16:34:56;5.90;99.90
8152;DHT22;4117;53.622;9.958;2023-02-18T16:37:23;5.90;99.90
8152;DHT22;4117;53.622;9.958;2023-02-18T16:40:21;5.90;99.90
8152;DHT22;4117;53.622;9.958;2023-02-18T16:42:48;5.90;99.90
8152;DHT22;4117;53.622;9.958;2023-02-18T16:45:17;5.90;99.90
8152;DHT22;4117;53.622;9.958;2023-02-18T16:47:45;5.80;99.90
8152;DHT22;4117;53.622;9.958;2023-02-18T16:50:15;5.80;99.90
8152;DHT22;4117;53.622;9.958;2023-02-18T16:52:43;5.80;99.90
8152;DHT22;4117;53.622;9.958;2023-02-18T16:55:16;5.70;99.90
8152;DHT22;4117;53.622;9.958;2023-02-18T16:57:44;5.70;99.90